createdAt,value
2022-11-08T00:00:41.321Z,9.50
2022-11-08T00:03:08.085Z,9.50
2022-11-08T00:05:53.515Z,9.50
2022-11-08T00:08:39.024Z,9.50
2022-11-08T00:11:23.949Z,9.40
2022-11-08T00:13:59.841Z,9.40
2022-11-08T00:16:27.779Z,9.40
2022-11-08T00:18:54.390Z,9.50
2022-11-08T00:21:23.116Z,9.60
2022-11-08T00:23:49.660Z,9.60
2022-11-08T00:26:16.209Z,9.50
2022-11-08T00:28:42.754Z,9.50
2022-11-08T00:31:09.532Z,9.50
2022-11-08T00:33:36.200Z,9.50
2022-11-08T00:36:03.424Z,9.20
2022-11-08T00:38:30.063Z,9.30
2022-11-08T00:40:56.631Z,9.20
2022-11-08T00:43:23.199Z,9.10
2022-11-08T00:45:49.732Z,9.10
2022-11-08T00:48:16.563Z,9.10
2022-11-08T00:50:43.346Z,9.00
2022-11-08T00:53:09.892Z,9.10
2022-11-08T00:55:36.431Z,9.10
2022-11-08T00:58:03.020Z,9.00
2022-11-08T01:00:30.990Z,9.00
2022-11-08T01:03:16.099Z,8.90
2022-11-08T01:05:42.715Z,8.90
2022-11-08T01:08:10.583Z,8.80
2022-11-08T01:10:37.590Z,8.80
2022-11-08T01:13:04.187Z,8.90
2022-11-08T01:15:36.155Z,8.80
2022-11-08T01:18:03.830Z,8.80
2022-11-08T01:20:30.568Z,8.80
2022-11-08T01:22:57.158Z,8.70
2022-11-08T01:25:23.701Z,8.80
2022-11-08T01:27:50.414Z,8.70
2022-11-08T01:30:17.259Z,8.70
2022-11-08T01:32:44.036Z,8.70
2022-11-08T01:35:10.807Z,8.60
2022-11-08T01:37:37.377Z,8.60
2022-11-08T01:40:05.162Z,8.50
2022-11-08T01:42:32.982Z,8.50
2022-11-08T01:45:02.126Z,8.50
2022-11-08T01:47:28.687Z,8.40
2022-11-08T01:50:05.240Z,8.40
2022-11-08T01:52:35.621Z,8.30
2022-11-08T01:55:17.311Z,8.30
2022-11-08T01:57:52.430Z,8.30
2022-11-08T02:00:19.750Z,8.30
2022-11-08T02:02:54.488Z,8.30
2022-11-08T02:05:27.038Z,8.30
2022-11-08T02:08:08.554Z,8.30
2022-11-08T02:10:38.103Z,8.20
2022-11-08T02:13:14.252Z,8.20
2022-11-08T02:15:42.451Z,8.20
2022-11-08T02:18:09.496Z,8.20
2022-11-08T02:20:36.539Z,8.20
2022-11-08T02:23:13.619Z,8.10
2022-11-08T02:25:40.434Z,8.10
2022-11-08T02:28:07.459Z,8.10
2022-11-08T02:30:37.917Z,8.00
2022-11-08T02:33:22.033Z,8.00
2022-11-08T02:35:53.219Z,8.00
2022-11-08T02:38:20.419Z,8.10
2022-11-08T02:40:52.554Z,8.00
2022-11-08T02:43:19.922Z,7.90
2022-11-08T02:45:46.773Z,7.90
2022-11-08T02:48:16.387Z,7.80
2022-11-08T02:50:43.250Z,7.80
2022-11-08T02:53:09.830Z,7.70
2022-11-08T02:55:36.902Z,7.70
2022-11-08T02:58:04.126Z,7.70
2022-11-08T03:00:30.994Z,7.70
2022-11-08T03:02:58.348Z,7.70
2022-11-08T03:05:26.395Z,7.60
2022-11-08T03:07:56.359Z,7.60
2022-11-08T03:10:24.590Z,7.50
2022-11-08T03:13:02.302Z,7.50
2022-11-08T03:15:29.881Z,7.50
2022-11-08T03:17:58.015Z,7.50
2022-11-08T03:20:28.248Z,7.40
2022-11-08T03:23:04.255Z,7.40
2022-11-08T03:25:30.992Z,7.40
2022-11-08T03:28:05.595Z,7.30
2022-11-08T03:30:32.893Z,7.30
2022-11-08T03:32:59.705Z,7.30
2022-11-08T03:35:26.292Z,7.20
2022-11-08T03:37:54.829Z,7.20
2022-11-08T03:40:21.846Z,7.20
2022-11-08T03:42:48.644Z,7.10
2022-11-08T03:45:16.087Z,7.20
2022-11-08T03:47:44.740Z,7.20
2022-11-08T03:50:13.432Z,7.10
2022-11-08T03:52:45.904Z,7.20
2022-11-08T03:55:12.928Z,7.20
2022-11-08T03:57:40.632Z,7.10
2022-11-08T04:00:09.528Z,7.10
2022-11-08T04:02:36.469Z,7.10
2022-11-08T04:05:03.563Z,7.10
2022-11-08T04:07:30.096Z,7.10
2022-11-08T04:09:56.614Z,7.20
2022-11-08T04:12:42.147Z,7.20
2022-11-08T04:15:15.850Z,7.10
2022-11-08T04:18:01.752Z,7.00
2022-11-08T04:20:47.323Z,7.00
2022-11-08T04:23:14.502Z,7.00
2022-11-08T04:25:41.256Z,7.00
2022-11-08T04:28:07.933Z,7.00
2022-11-08T04:30:34.898Z,7.00
2022-11-08T04:33:05.035Z,7.10
2022-11-08T04:35:31.943Z,7.00
2022-11-08T04:38:00.153Z,7.00
2022-11-08T04:40:27.284Z,7.00
2022-11-08T04:42:53.957Z,7.00
2022-11-08T04:45:20.647Z,6.90
2022-11-08T04:47:48.630Z,6.90
2022-11-08T04:50:16.223Z,6.90
2022-11-08T04:52:42.775Z,6.90
2022-11-08T04:55:09.869Z,6.90
2022-11-08T04:57:36.437Z,6.80
2022-11-08T05:00:03.622Z,6.70
2022-11-08T05:02:30.453Z,6.70
2022-11-08T05:04:57.723Z,6.60
2022-11-08T05:07:24.500Z,6.70
2022-11-08T05:09:51.056Z,6.80
2022-11-08T05:12:17.750Z,6.80
2022-11-08T05:14:44.315Z,6.80
2022-11-08T05:17:10.859Z,6.80
2022-11-08T05:19:56.300Z,6.90
2022-11-08T05:22:41.811Z,6.90
2022-11-08T05:25:08.474Z,6.90
2022-11-08T05:27:35.291Z,6.90
2022-11-08T05:30:02.595Z,6.70
2022-11-08T05:32:29.370Z,6.70
2022-11-08T05:34:56.108Z,6.80
2022-11-08T05:37:22.930Z,6.70
2022-11-08T05:39:49.691Z,6.70
2022-11-08T05:42:16.354Z,6.70
2022-11-08T05:44:43.091Z,6.60
2022-11-08T05:47:11.466Z,6.60
2022-11-08T05:49:38.280Z,6.60
2022-11-08T05:52:05.051Z,6.50
2022-11-08T05:54:34.918Z,6.50
2022-11-08T05:57:01.578Z,6.50
2022-11-08T05:59:28.303Z,6.50
2022-11-08T06:01:55.021Z,6.40
2022-11-08T06:04:21.840Z,6.40
2022-11-08T06:06:50.103Z,6.40
2022-11-08T06:09:16.724Z,6.40
2022-11-08T06:11:43.366Z,6.20
2022-11-08T06:14:09.895Z,6.20
2022-11-08T06:16:36.551Z,6.10
2022-11-08T06:19:03.277Z,6.10
2022-11-08T06:21:29.876Z,5.90
2022-11-08T06:23:56.590Z,5.90
2022-11-08T06:26:24.138Z,6.00
2022-11-08T06:28:50.857Z,6.00
2022-11-08T06:31:17.493Z,6.00
2022-11-08T06:33:44.848Z,6.00
2022-11-08T06:36:11.494Z,6.10
2022-11-08T06:38:38.155Z,5.90
2022-11-08T06:41:04.857Z,5.90
2022-11-08T06:43:31.604Z,6.00
2022-11-08T06:46:02.603Z,6.00
2022-11-08T06:48:35.010Z,6.00
2022-11-08T06:51:02.615Z,6.10
2022-11-08T06:53:29.235Z,6.10
2022-11-08T06:55:55.769Z,6.10
2022-11-08T06:58:22.430Z,6.10
2022-11-08T07:00:49.042Z,6.30
2022-11-08T07:03:17.644Z,6.30
2022-11-08T07:05:44.477Z,6.30
2022-11-08T07:08:11.160Z,6.30
2022-11-08T07:10:37.942Z,6.40
2022-11-08T07:13:07.208Z,6.40
2022-11-08T07:15:35.702Z,6.60
2022-11-08T07:18:07.344Z,6.70
2022-11-08T07:20:34.530Z,6.80
2022-11-08T07:23:01.829Z,6.80
2022-11-08T07:25:29.235Z,6.80
2022-11-08T07:28:01.495Z,6.90
2022-11-08T07:30:29.093Z,7.00
2022-11-08T07:32:56.672Z,7.00
2022-11-08T07:35:24.593Z,7.00
2022-11-08T07:37:51.382Z,7.10
2022-11-08T07:40:18.055Z,7.10
2022-11-08T07:43:10.156Z,7.20
2022-11-08T07:45:31.248Z,7.20
2022-11-08T07:48:10.725Z,7.10
2022-11-08T07:50:38.292Z,7.20
2022-11-08T07:53:05.004Z,7.10
2022-11-08T07:55:31.632Z,7.10
2022-11-08T07:58:02.602Z,7.30
2022-11-08T08:00:36.120Z,7.30
2022-11-08T08:03:04.115Z,7.40
2022-11-08T08:05:34.450Z,7.50
2022-11-08T08:08:02.411Z,7.70
2022-11-08T08:10:30.491Z,7.80
2022-11-08T08:12:57.591Z,7.80
2022-11-08T08:15:25.148Z,7.80
2022-11-08T08:17:52.047Z,7.90
2022-11-08T08:20:19.394Z,8.10
2022-11-08T08:22:47.995Z,8.20
2022-11-08T08:25:15.550Z,8.30
2022-11-08T08:27:53.551Z,8.50
2022-11-08T08:30:20.636Z,8.60
2022-11-08T08:33:02.217Z,8.70
2022-11-08T08:35:36.162Z,8.70
2022-11-08T08:38:04.226Z,8.70
2022-11-08T08:40:31.560Z,8.70
2022-11-08T08:42:59.965Z,8.80
2022-11-08T08:45:27.499Z,8.80
2022-11-08T08:47:55.974Z,8.80
2022-11-08T08:50:22.974Z,8.80
2022-11-08T08:52:49.913Z,8.90
2022-11-08T08:55:17.133Z,8.90
2022-11-08T08:57:47.808Z,9.10
2022-11-08T09:03:08.707Z,9.20
2022-11-08T09:05:35.616Z,9.20
2022-11-08T09:08:02.465Z,9.30
2022-11-08T09:10:29.959Z,9.30
2022-11-08T09:12:56.512Z,9.30
2022-11-08T09:15:23.291Z,9.30
2022-11-08T09:17:50.018Z,9.40
2022-11-08T09:20:16.673Z,9.50
2022-11-08T09:22:43.500Z,9.50
2022-11-08T09:25:10.393Z,9.60
2022-11-08T09:27:37.051Z,9.60
2022-11-08T09:30:04.947Z,9.70
2022-11-08T09:32:46.512Z,9.70
2022-11-08T09:35:18.101Z,9.80
2022-11-08T09:37:47.195Z,9.80
2022-11-08T09:40:19.711Z,9.90
2022-11-08T09:43:08.473Z,10.00
2022-11-08T09:45:43.749Z,10.10
2022-11-08T09:48:16.998Z,10.30
2022-11-08T09:50:45.920Z,10.40
2022-11-08T09:53:38.370Z,10.60
2022-11-08T09:56:26.027Z,10.80
2022-11-08T09:59:24.134Z,10.90
2022-11-08T10:01:50.789Z,11.00
2022-11-08T10:04:23.798Z,11.20
2022-11-08T10:07:17.574Z,11.40
2022-11-08T10:09:53.716Z,11.50
2022-11-08T10:12:50.882Z,11.60
2022-11-08T10:15:35.395Z,11.80
2022-11-08T10:18:20.624Z,11.90
2022-11-08T10:21:05.225Z,12.00
2022-11-08T10:23:40.484Z,12.10
2022-11-08T10:26:14.523Z,12.20
2022-11-08T10:28:50.210Z,12.30
2022-11-08T10:31:19.456Z,12.30
2022-11-08T10:33:53.930Z,12.40
2022-11-08T10:36:31.504Z,12.50
2022-11-08T10:39:01.224Z,12.60
2022-11-08T10:41:52.912Z,12.60
2022-11-08T10:44:26.859Z,12.70
2022-11-08T10:46:56.426Z,12.80
2022-11-08T10:49:41.948Z,12.90
2022-11-08T10:52:16.551Z,13.10
2022-11-08T10:54:46.052Z,13.10
2022-11-08T10:57:22.275Z,13.20
2022-11-08T10:59:48.988Z,13.20
2022-11-08T11:02:26.155Z,13.30
2022-11-08T11:04:53.935Z,13.40
2022-11-08T11:07:33.923Z,13.80
2022-11-08T11:10:41.041Z,14.20
2022-11-08T11:13:15.313Z,14.30
2022-11-08T11:15:51.086Z,14.20
2022-11-08T11:18:30.571Z,14.50
2022-11-08T11:21:15.943Z,14.70
2022-11-08T11:23:47.356Z,15.50
2022-11-08T11:26:30.915Z,15.40
2022-11-08T11:29:06.862Z,15.10
2022-11-08T11:31:39.107Z,14.80
2022-11-08T11:34:17.919Z,14.70
2022-11-08T11:37:04.566Z,14.60
2022-11-08T11:39:49.396Z,14.60
2022-11-08T11:42:46.090Z,14.70
2022-11-08T11:45:23.815Z,14.70
2022-11-08T11:47:54.172Z,14.70
2022-11-08T11:50:27.854Z,14.80
2022-11-08T11:52:56.224Z,14.80
2022-11-08T11:55:46.144Z,14.80
2022-11-08T11:58:36.233Z,14.80
2022-11-08T12:01:14.619Z,14.80
2022-11-08T12:03:53.565Z,14.80
2022-11-08T12:06:45.471Z,15.00
2022-11-08T12:09:26.630Z,15.00
2022-11-08T12:12:08.153Z,15.00
2022-11-08T12:14:39.592Z,15.20
2022-11-08T12:17:27.244Z,15.20
2022-11-08T12:20:10.253Z,15.20
2022-11-08T12:23:02.060Z,15.20
2022-11-08T12:25:46.248Z,15.40
2022-11-08T12:28:47.139Z,15.40
2022-11-08T12:31:25.583Z,15.40
2022-11-08T12:34:17.026Z,15.50
2022-11-08T12:37:15.044Z,15.60
2022-11-08T12:39:49.338Z,15.60
2022-11-08T12:42:29.348Z,15.60
2022-11-08T12:45:24.019Z,15.70
2022-11-08T12:47:57.209Z,15.70
2022-11-08T12:50:57.607Z,15.60
2022-11-08T12:53:43.301Z,15.60
2022-11-08T12:56:22.183Z,15.70
2022-11-08T12:58:53.462Z,15.70
2022-11-08T13:01:22.426Z,15.70
2022-11-08T13:03:51.962Z,15.80
2022-11-08T13:06:59.257Z,15.90
2022-11-08T13:09:56.556Z,16.10
2022-11-08T13:12:46.733Z,16.20
2022-11-08T13:15:25.035Z,16.20
2022-11-08T13:18:07.009Z,16.50
2022-11-08T13:20:46.250Z,16.80
2022-11-08T13:23:33.005Z,17.10
2022-11-08T13:26:17.960Z,17.20
2022-11-08T13:28:46.282Z,17.30
2022-11-08T13:31:22.970Z,17.40
2022-11-08T13:34:27.432Z,17.30
2022-11-08T13:37:09.135Z,17.20
2022-11-08T13:39:57.112Z,16.90
2022-11-08T13:42:23.674Z,16.60
2022-11-08T13:44:56.743Z,16.40
2022-11-08T13:47:32.531Z,16.20
2022-11-08T13:50:31.367Z,16.10
2022-11-08T13:53:57.899Z,16.00
2022-11-08T13:56:44.604Z,15.90
2022-11-08T13:59:32.750Z,15.90
2022-11-08T14:02:12.756Z,15.80
2022-11-08T14:04:40.988Z,15.80
2022-11-08T14:07:47.819Z,15.70
2022-11-08T14:10:32.386Z,15.70
2022-11-08T14:13:23.808Z,15.60
2022-11-08T14:16:02.871Z,15.60
2022-11-08T14:18:35.115Z,15.50
2022-11-08T14:21:04.735Z,15.50
2022-11-08T14:23:35.769Z,15.50
2022-11-08T14:26:11.799Z,15.40
2022-11-08T14:28:43.492Z,15.50
2022-11-08T14:31:36.470Z,15.50
2022-11-08T14:34:03.332Z,15.50
2022-11-08T14:36:32.283Z,15.40
2022-11-08T14:39:18.003Z,15.40
2022-11-08T14:41:47.156Z,15.40
2022-11-08T14:44:16.974Z,15.30
2022-11-08T14:46:44.004Z,15.20
2022-11-08T14:49:20.142Z,15.00
2022-11-08T14:51:47.063Z,15.00
2022-11-08T14:54:18.290Z,14.90
2022-11-08T14:56:45.244Z,14.80
2022-11-08T14:59:13.316Z,14.70
2022-11-08T15:01:41.552Z,14.70
2022-11-08T15:04:17.701Z,14.60
2022-11-08T15:06:49.664Z,14.50
2022-11-08T15:09:27.992Z,14.40
2022-11-08T15:11:58.126Z,14.40
2022-11-08T15:14:29.759Z,14.30
2022-11-08T15:17:02.564Z,14.20
2022-11-08T15:19:40.106Z,14.10
2022-11-08T15:22:30.837Z,13.90
2022-11-08T15:25:25.438Z,13.80
2022-11-08T15:27:57.766Z,13.70
2022-11-08T15:30:30.607Z,13.60
2022-11-08T15:32:57.665Z,13.60
2022-11-08T15:35:32.740Z,13.50
2022-11-08T15:38:27.139Z,13.50
2022-11-08T15:40:56.566Z,13.50
2022-11-08T15:43:40.680Z,13.40
2022-11-08T15:46:28.658Z,13.50
2022-11-08T15:48:59.282Z,13.40
2022-11-08T15:51:26.015Z,13.40
2022-11-08T15:53:52.757Z,13.30
2022-11-08T15:56:19.731Z,13.20
2022-11-08T15:58:46.801Z,13.10
2022-11-08T16:01:22.703Z,13.10
2022-11-08T16:03:49.453Z,13.10
2022-11-08T16:06:16.100Z,13.20
2022-11-08T16:08:42.669Z,13.10
2022-11-08T16:11:24.046Z,13.10
2022-11-08T16:13:51.814Z,13.00
2022-11-08T16:16:18.813Z,13.00
2022-11-08T16:18:45.784Z,12.90
2022-11-08T16:21:13.925Z,12.90
2022-11-08T16:23:41.533Z,12.90
2022-11-08T16:26:14.643Z,12.90
2022-11-08T16:28:41.983Z,12.80
2022-11-08T16:31:14.008Z,12.80
2022-11-08T16:33:42.632Z,12.80
2022-11-08T16:36:29.259Z,12.70
2022-11-08T16:38:57.524Z,12.70
2022-11-08T16:41:25.550Z,12.60
2022-11-08T16:43:54.691Z,12.60
2022-11-08T16:46:22.831Z,12.50
2022-11-08T16:48:57.919Z,12.60
2022-11-08T16:51:25.384Z,12.50
2022-11-08T16:53:52.764Z,12.50
2022-11-08T16:56:19.738Z,12.40
2022-11-08T16:58:46.322Z,12.40
2022-11-08T17:01:17.139Z,12.40
2022-11-08T17:03:43.756Z,12.40
2022-11-08T17:06:15.812Z,12.40
2022-11-08T17:08:42.450Z,12.30
2022-11-08T17:11:14.902Z,12.30
2022-11-08T17:13:41.510Z,12.30
2022-11-08T17:16:11.605Z,12.30
2022-11-08T17:18:38.983Z,12.30
2022-11-08T17:21:30.342Z,12.20
2022-11-08T17:23:53.899Z,12.20
2022-11-08T17:26:20.592Z,12.20
2022-11-08T17:28:47.178Z,12.20
2022-11-08T17:31:16.086Z,12.20
2022-11-08T17:33:43.009Z,12.20
2022-11-08T17:36:12.945Z,12.20
2022-11-08T17:38:40.974Z,12.10
2022-11-08T17:41:12.964Z,12.10
2022-11-08T17:43:39.949Z,12.20
2022-11-08T17:46:07.111Z,12.10
2022-11-08T17:48:34.776Z,12.10
2022-11-08T17:51:01.519Z,12.00
2022-11-08T17:53:28.311Z,12.00
2022-11-08T17:55:56.798Z,11.90
2022-11-08T17:58:25.839Z,11.90
2022-11-08T18:00:57.771Z,11.90
2022-11-08T18:03:25.942Z,11.80
2022-11-08T18:06:06.048Z,11.80
2022-11-08T18:08:34.208Z,11.90
2022-11-08T18:11:02.722Z,11.90
2022-11-08T18:13:30.439Z,11.90
2022-11-08T18:16:09.831Z,11.90
2022-11-08T18:18:36.818Z,11.80
2022-11-08T18:21:04.178Z,11.80
2022-11-08T18:23:31.281Z,11.80
2022-11-08T18:25:58.135Z,11.80
2022-11-08T18:28:25.491Z,11.80
2022-11-08T18:30:53.299Z,11.70
2022-11-08T18:33:21.030Z,11.70
2022-11-08T18:35:48.241Z,11.70
2022-11-08T18:38:14.893Z,11.70
2022-11-08T18:40:45.455Z,11.70
2022-11-08T18:43:12.185Z,11.80
2022-11-08T18:45:38.917Z,11.80
2022-11-08T18:48:06.426Z,11.80
2022-11-08T18:50:33.121Z,11.80
2022-11-08T18:53:03.943Z,11.80
2022-11-08T18:55:31.637Z,11.70
2022-11-08T18:58:02.175Z,11.70
2022-11-08T19:00:29.057Z,11.70
2022-11-08T19:02:55.761Z,11.70
2022-11-08T19:05:23.406Z,11.60
2022-11-08T19:07:50.013Z,11.60
2022-11-08T19:10:16.669Z,11.50
2022-11-08T19:12:43.271Z,11.40
2022-11-08T19:15:09.990Z,11.50
2022-11-08T19:17:36.694Z,11.50
2022-11-08T19:20:04.202Z,11.60
2022-11-08T19:22:30.867Z,11.60
2022-11-08T19:24:57.522Z,11.60
2022-11-08T19:27:24.259Z,11.60
2022-11-08T19:29:50.920Z,11.60
2022-11-08T19:32:17.727Z,11.60
2022-11-08T19:34:47.152Z,11.60
2022-11-08T19:37:13.954Z,11.60
2022-11-08T19:39:40.814Z,11.50
2022-11-08T19:42:07.460Z,11.60
2022-11-08T19:44:34.173Z,11.60
2022-11-08T19:47:01.033Z,11.60
2022-11-08T19:49:28.627Z,11.60
2022-11-08T19:51:55.272Z,11.60
2022-11-08T19:54:22.022Z,11.70
2022-11-08T19:57:05.524Z,11.60
2022-11-08T19:59:33.252Z,11.60
2022-11-08T20:02:00.406Z,11.60
2022-11-08T20:04:27.264Z,11.50
2022-11-08T20:06:54.028Z,11.60
2022-11-08T20:09:21.328Z,11.50
2022-11-08T20:11:50.237Z,11.50
2022-11-08T20:14:16.997Z,11.40
2022-11-08T20:16:47.874Z,11.40
2022-11-08T20:19:17.817Z,11.40
2022-11-08T20:21:46.189Z,11.40
2022-11-08T20:24:14.330Z,11.40
2022-11-08T20:26:41.886Z,11.40
2022-11-08T20:29:09.175Z,11.40
2022-11-08T20:31:36.096Z,11.40
2022-11-08T20:34:05.738Z,11.50
2022-11-08T20:36:35.471Z,11.50
2022-11-08T20:39:06.852Z,11.60
2022-11-08T20:41:36.831Z,11.60
2022-11-08T20:44:05.394Z,11.60
2022-11-08T20:46:32.969Z,11.50
2022-11-08T20:49:00.880Z,11.40
2022-11-08T20:51:29.808Z,11.50
2022-11-08T20:53:57.106Z,11.40
2022-11-08T20:56:24.348Z,11.50
2022-11-08T20:58:52.124Z,11.50
2022-11-08T21:01:24.588Z,11.40
2022-11-08T21:03:52.333Z,11.40
2022-11-08T21:06:22.075Z,11.40
2022-11-08T21:08:59.075Z,11.50
2022-11-08T21:11:27.581Z,11.50
2022-11-08T21:13:54.133Z,11.50
2022-11-08T21:16:30.034Z,11.60
2022-11-08T21:18:59.046Z,11.60
2022-11-08T21:21:26.057Z,11.50
2022-11-08T21:23:54.147Z,11.60
2022-11-08T21:26:20.874Z,11.60
2022-11-08T21:28:47.675Z,11.70
2022-11-08T21:31:15.098Z,11.70
2022-11-08T21:33:42.318Z,11.60
2022-11-08T21:36:10.065Z,11.60
2022-11-08T21:38:38.462Z,11.60
2022-11-08T21:41:07.563Z,11.70
2022-11-08T21:43:36.237Z,11.60
2022-11-08T21:46:29.695Z,11.60
2022-11-08T21:48:58.312Z,11.60
2022-11-08T21:51:26.139Z,11.50
2022-11-08T21:53:55.449Z,11.50
2022-11-08T21:56:24.840Z,11.50
2022-11-08T21:58:52.631Z,11.40
2022-11-08T22:01:19.888Z,11.50
2022-11-08T22:03:47.115Z,11.40
2022-11-08T22:06:14.508Z,11.50
2022-11-08T22:08:41.201Z,11.50
2022-11-08T22:11:07.866Z,11.50
2022-11-08T22:13:34.735Z,11.50
2022-11-08T22:16:01.358Z,11.50
2022-11-08T22:18:43.590Z,11.50
2022-11-08T22:21:32.975Z,11.50
2022-11-08T22:23:59.595Z,11.50
2022-11-08T22:26:26.180Z,11.60
2022-11-08T22:28:52.799Z,11.60
2022-11-08T22:31:19.343Z,11.50
2022-11-08T22:33:45.947Z,11.50
2022-11-08T22:36:12.721Z,11.50
2022-11-08T22:38:39.323Z,11.50
2022-11-08T22:41:06.434Z,11.50
2022-11-08T22:43:35.031Z,11.50
2022-11-08T22:46:01.798Z,11.50
2022-11-08T22:48:28.481Z,11.60
2022-11-08T22:50:55.026Z,11.50
2022-11-08T22:53:21.770Z,11.50
2022-11-08T22:55:48.568Z,11.40
2022-11-08T22:58:15.148Z,11.50
2022-11-08T23:00:42.537Z,11.40
2022-11-08T23:03:09.514Z,11.40
2022-11-08T23:05:36.107Z,11.40
2022-11-08T23:08:02.749Z,11.40
2022-11-08T23:10:29.379Z,11.40
2022-11-08T23:13:14.575Z,11.40
2022-11-08T23:15:59.932Z,11.40
2022-11-08T23:18:27.408Z,11.40
2022-11-08T23:21:13.431Z,11.40
2022-11-08T23:23:58.814Z,11.40
2022-11-08T23:26:44.499Z,11.40
2022-11-08T23:29:30.057Z,11.30
2022-11-08T23:31:56.952Z,11.30
2022-11-08T23:34:23.519Z,11.30
2022-11-08T23:36:50.246Z,11.30
2022-11-08T23:39:16.789Z,11.30
2022-11-08T23:42:01.860Z,11.30
2022-11-08T23:44:28.662Z,11.30
2022-11-08T23:47:00.159Z,11.30
2022-11-08T23:49:27.510Z,11.20
2022-11-08T23:51:54.634Z,11.20
2022-11-08T23:54:21.588Z,11.20
2022-11-08T23:56:48.497Z,11.10
2022-11-08T23:59:15.841Z,11.10
